sensor_id;sensor_type;location;lat;lon;timestamp;temperature;humidity
50570;DHT22;36525;49.398;7.614;2022-07-29T00:01:03;17.60;99.90
50570;DHT22;36525;49.398;7.614;2022-07-29T00:03:30;17.60;99.90
50570;DHT22;36525;49.398;7.614;2022-07-29T00:05:57;17.60;99.90
50570;DHT22;36525;49.398;7.614;2022-07-29T00:08:26;17.60;99.90
50570;DHT22;36525;49.398;7.614;2022-07-29T00:10:55;17.50;99.90
50570;DHT22;36525;49.398;7.614;2022-07-29T00:13:22;17.50;99.90
50570;DHT22;36525;49.398;7.614;2022-07-29T00:15:58;17.50;99.90
50570;DHT22;36525;49.398;7.614;2022-07-29T00:18:31;17.60;99.90
50570;DHT22;36525;49.398;7.614;2022-07-29T00:20:58;17.60;99.90
50570;DHT22;36525;49.398;7.614;2022-07-29T00:23:26;17.60;99.90
50570;DHT22;36525;49.398;7.614;2022-07-29T00:25:52;17.50;99.90
50570;DHT22;36525;49.398;7.614;2022-07-29T00:28:19;17.40;99.90
50570;DHT22;36525;49.398;7.614;2022-07-29T00:30:46;17.40;99.90
50570;DHT22;36525;49.398;7.614;2022-07-29T00:33:13;17.40;99.90
50570;DHT22;36525;49.398;7.614;2022-07-29T00:35:40;17.40;99.90
50570;DHT22;36525;49.398;7.614;2022-07-29T00:38:14;17.30;99.90
50570;DHT22;36525;49.398;7.614;2022-07-29T00:40:43;17.30;99.90
50570;DHT22;36525;49.398;7.614;2022-07-29T00:43:12;17.30;99.90
50570;DHT22;36525;49.398;7.614;2022-07-29T00:45:41;17.20;99.90
50570;DHT22;36525;49.398;7.614;2022-07-29T00:48:08;17.20;99.90
50570;DHT22;36525;49.398;7.614;2022-07-29T00:50:36;17.20;99.90
50570;DHT22;36525;49.398;7.614;2022-07-29T00:53:06;17.20;99.90
50570;DHT22;36525;49.398;7.614;2022-07-29T00:55:34;17.20;99.90
50570;DHT22;36525;49.398;7.614;2022-07-29T00:58:02;17.20;99.90
50570;DHT22;36525;49.398;7.614;2022-07-29T01:00:29;17.10;99.90
50570;DHT22;36525;49.398;7.614;2022-07-29T01:02:57;17.10;99.90
50570;DHT22;36525;49.398;7.614;2022-07-29T01:05:26;17.00;99.90
50570;DHT22;36525;49.398;7.614;2022-07-29T01:08:16;17.00;99.90
50570;DHT22;36525;49.398;7.614;2022-07-29T01:10:44;16.90;99.90
50570;DHT22;36525;49.398;7.614;2022-07-29T01:13:14;17.00;99.90
50570;DHT22;36525;49.398;7.614;2022-07-29T01:15:56;17.00;99.90
50570;DHT22;36525;49.398;7.614;2022-07-29T01:18:34;17.00;99.90
50570;DHT22;36525;49.398;7.614;2022-07-29T01:21:13;17.00;99.90
50570;DHT22;36525;49.398;7.614;2022-07-29T01:27:24;16.90;99.90
50570;DHT22;36525;49.398;7.614;2022-07-29T01:30:01;16.90;99.90
50570;DHT22;36525;49.398;7.614;2022-07-29T01:32:33;16.90;99.90
50570;DHT22;36525;49.398;7.614;2022-07-29T01:38:09;17.00;99.90
50570;DHT22;36525;49.398;7.614;2022-07-29T01:40:49;17.00;99.90
50570;DHT22;36525;49.398;7.614;2022-07-29T01:43:27;17.00;99.90
50570;DHT22;36525;49.398;7.614;2022-07-29T01:46:03;17.10;99.90
50570;DHT22;36525;49.398;7.614;2022-07-29T01:48:53;17.10;99.90
50570;DHT22;36525;49.398;7.614;2022-07-29T01:51:32;17.10;99.90
50570;DHT22;36525;49.398;7.614;2022-07-29T01:54:18;17.10;99.90
50570;DHT22;36525;49.398;7.614;2022-07-29T01:56:50;17.10;99.90
50570;DHT22;36525;49.398;7.614;2022-07-29T01:59:19;17.10;99.90
50570;DHT22;36525;49.398;7.614;2022-07-29T02:01:48;17.10;99.90
50570;DHT22;36525;49.398;7.614;2022-07-29T02:04:20;17.00;99.90
50570;DHT22;36525;49.398;7.614;2022-07-29T02:07:00;16.90;99.90
50570;DHT22;36525;49.398;7.614;2022-07-29T02:09:29;16.90;99.90
50570;DHT22;36525;49.398;7.614;2022-07-29T02:11:59;16.90;99.90
50570;DHT22;36525;49.398;7.614;2022-07-29T02:14:37;16.90;99.90
50570;DHT22;36525;49.398;7.614;2022-07-29T02:17:06;16.90;99.90
50570;DHT22;36525;49.398;7.614;2022-07-29T02:19:33;16.80;99.90
50570;DHT22;36525;49.398;7.614;2022-07-29T02:22:01;16.80;99.90
50570;DHT22;36525;49.398;7.614;2022-07-29T02:24:30;16.70;99.90
50570;DHT22;36525;49.398;7.614;2022-07-29T02:26:59;16.70;99.90
50570;DHT22;36525;49.398;7.614;2022-07-29T02:29:28;16.60;99.90
50570;DHT22;36525;49.398;7.614;2022-07-29T02:31:58;16.70;99.90
50570;DHT22;36525;49.398;7.614;2022-07-29T02:34:27;16.60;99.90
50570;DHT22;36525;49.398;7.614;2022-07-29T02:36:55;16.60;99.90
50570;DHT22;36525;49.398;7.614;2022-07-29T02:39:24;16.60;99.90
50570;DHT22;36525;49.398;7.614;2022-07-29T02:41:55;16.50;99.90
50570;DHT22;36525;49.398;7.614;2022-07-29T02:44:26;16.40;99.90
50570;DHT22;36525;49.398;7.614;2022-07-29T02:47:10;16.30;99.90
50570;DHT22;36525;49.398;7.614;2022-07-29T02:52:44;16.20;99.90
50570;DHT22;36525;49.398;7.614;2022-07-29T03:08:00;16.00;99.90
50570;DHT22;36525;49.398;7.614;2022-07-29T03:22:59;15.70;99.90
50570;DHT22;36525;49.398;7.614;2022-07-29T03:25:26;15.60;99.90
50570;DHT22;36525;49.398;7.614;2022-07-29T03:27:54;15.60;99.90
50570;DHT22;36525;49.398;7.614;2022-07-29T03:30:20;15.50;99.90
50570;DHT22;36525;49.398;7.614;2022-07-29T03:32:50;15.50;99.90
50570;DHT22;36525;49.398;7.614;2022-07-29T03:35:19;15.40;99.90
50570;DHT22;36525;49.398;7.614;2022-07-29T03:37:47;15.40;99.90
50570;DHT22;36525;49.398;7.614;2022-07-29T03:40:22;15.10;99.90
50570;DHT22;36525;49.398;7.614;2022-07-29T03:42:54;15.10;99.90
50570;DHT22;36525;49.398;7.614;2022-07-29T03:45:23;15.00;99.90
50570;DHT22;36525;49.398;7.614;2022-07-29T03:47:53;15.00;99.90
50570;DHT22;36525;49.398;7.614;2022-07-29T03:50:28;15.00;99.90
50570;DHT22;36525;49.398;7.614;2022-07-29T03:52:57;15.10;99.90
50570;DHT22;36525;49.398;7.614;2022-07-29T03:55:25;15.10;99.90
50570;DHT22;36525;49.398;7.614;2022-07-29T03:57:53;15.10;99.90
50570;DHT22;36525;49.398;7.614;2022-07-29T04:00:23;15.10;99.90
50570;DHT22;36525;49.398;7.614;2022-07-29T04:02:51;15.10;99.90
50570;DHT22;36525;49.398;7.614;2022-07-29T04:05:18;15.10;99.90
50570;DHT22;36525;49.398;7.614;2022-07-29T04:07:49;15.10;99.90
50570;DHT22;36525;49.398;7.614;2022-07-29T04:10:16;15.10;99.90
50570;DHT22;36525;49.398;7.614;2022-07-29T04:12:58;15.00;99.90
50570;DHT22;36525;49.398;7.614;2022-07-29T04:15:26;14.90;99.90
50570;DHT22;36525;49.398;7.614;2022-07-29T04:17:57;14.90;99.90
50570;DHT22;36525;49.398;7.614;2022-07-29T04:20:25;14.90;99.90
50570;DHT22;36525;49.398;7.614;2022-07-29T04:22:52;15.00;99.90
50570;DHT22;36525;49.398;7.614;2022-07-29T04:25:19;15.10;99.90
50570;DHT22;36525;49.398;7.614;2022-07-29T04:27:46;15.10;99.90
50570;DHT22;36525;49.398;7.614;2022-07-29T04:30:30;15.10;99.90
50570;DHT22;36525;49.398;7.614;2022-07-29T04:32:57;15.20;99.90
50570;DHT22;36525;49.398;7.614;2022-07-29T04:35:25;15.30;99.90
50570;DHT22;36525;49.398;7.614;2022-07-29T04:37:52;15.40;99.90
50570;DHT22;36525;49.398;7.614;2022-07-29T04:40:19;15.40;99.90
50570;DHT22;36525;49.398;7.614;2022-07-29T04:42:46;15.40;99.90
50570;DHT22;36525;49.398;7.614;2022-07-29T04:45:15;15.40;99.90
50570;DHT22;36525;49.398;7.614;2022-07-29T04:47:48;15.30;99.90
50570;DHT22;36525;49.398;7.614;2022-07-29T04:50:15;15.40;99.90
50570;DHT22;36525;49.398;7.614;2022-07-29T04:52:43;15.40;99.90
50570;DHT22;36525;49.398;7.614;2022-07-29T04:55:10;15.50;99.90
50570;DHT22;36525;49.398;7.614;2022-07-29T04:57:37;15.40;99.90
50570;DHT22;36525;49.398;7.614;2022-07-29T05:00:05;15.50;99.90
50570;DHT22;36525;49.398;7.614;2022-07-29T05:02:32;15.50;99.90
50570;DHT22;36525;49.398;7.614;2022-07-29T05:04:59;15.60;99.90
50570;DHT22;36525;49.398;7.614;2022-07-29T05:07:26;15.60;99.90
50570;DHT22;36525;49.398;7.614;2022-07-29T05:09:53;15.70;99.90
50570;DHT22;36525;49.398;7.614;2022-07-29T05:12:24;15.70;99.90
50570;DHT22;36525;49.398;7.614;2022-07-29T05:14:52;15.90;99.90
50570;DHT22;36525;49.398;7.614;2022-07-29T05:17:19;16.10;99.90
50570;DHT22;36525;49.398;7.614;2022-07-29T05:19:46;16.20;99.90
50570;DHT22;36525;49.398;7.614;2022-07-29T05:22:13;16.40;99.90
50570;DHT22;36525;49.398;7.614;2022-07-29T05:24:40;16.50;99.90
50570;DHT22;36525;49.398;7.614;2022-07-29T05:27:07;16.60;99.90
50570;DHT22;36525;49.398;7.614;2022-07-29T05:29:43;16.80;99.90
50570;DHT22;36525;49.398;7.614;2022-07-29T05:32:12;17.00;99.90
50570;DHT22;36525;49.398;7.614;2022-07-29T05:34:40;17.20;99.90
50570;DHT22;36525;49.398;7.614;2022-07-29T05:37:18;17.30;99.90
50570;DHT22;36525;49.398;7.614;2022-07-29T05:39:46;17.60;99.90
50570;DHT22;36525;49.398;7.614;2022-07-29T05:42:23;17.80;99.90
50570;DHT22;36525;49.398;7.614;2022-07-29T05:44:51;18.10;99.90
50570;DHT22;36525;49.398;7.614;2022-07-29T05:47:18;18.30;99.90
50570;DHT22;36525;49.398;7.614;2022-07-29T05:49:45;18.40;99.90
50570;DHT22;36525;49.398;7.614;2022-07-29T05:52:12;18.60;99.90
50570;DHT22;36525;49.398;7.614;2022-07-29T05:54:39;18.70;99.90
50570;DHT22;36525;49.398;7.614;2022-07-29T05:57:06;18.70;99.90
50570;DHT22;36525;49.398;7.614;2022-07-29T05:59:37;18.80;99.90
50570;DHT22;36525;49.398;7.614;2022-07-29T06:02:04;18.80;99.90
50570;DHT22;36525;49.398;7.614;2022-07-29T06:04:32;18.90;99.90
50570;DHT22;36525;49.398;7.614;2022-07-29T06:07:00;18.90;99.90
50570;DHT22;36525;49.398;7.614;2022-07-29T06:09:28;19.00;99.90
50570;DHT22;36525;49.398;7.614;2022-07-29T06:11:55;19.10;99.90
50570;DHT22;36525;49.398;7.614;2022-07-29T06:14:24;19.20;99.90
50570;DHT22;36525;49.398;7.614;2022-07-29T06:16:51;19.50;99.90
50570;DHT22;36525;49.398;7.614;2022-07-29T06:19:19;19.70;99.90
50570;DHT22;36525;49.398;7.614;2022-07-29T06:21:47;19.90;99.90
50570;DHT22;36525;49.398;7.614;2022-07-29T06:24:14;20.00;99.90
50570;DHT22;36525;49.398;7.614;2022-07-29T06:26:42;20.10;99.90
50570;DHT22;36525;49.398;7.614;2022-07-29T06:29:10;20.20;99.90
50570;DHT22;36525;49.398;7.614;2022-07-29T06:31:37;20.40;99.90
50570;DHT22;36525;49.398;7.614;2022-07-29T06:34:05;20.60;99.90
50570;DHT22;36525;49.398;7.614;2022-07-29T06:36:36;20.80;99.90
50570;DHT22;36525;49.398;7.614;2022-07-29T06:39:08;21.00;99.90
50570;DHT22;36525;49.398;7.614;2022-07-29T06:41:37;21.10;99.90
50570;DHT22;36525;49.398;7.614;2022-07-29T06:44:04;21.10;99.90
50570;DHT22;36525;49.398;7.614;2022-07-29T06:46:31;21.20;99.90
50570;DHT22;36525;49.398;7.614;2022-07-29T06:48:59;21.30;99.90
50570;DHT22;36525;49.398;7.614;2022-07-29T06:51:28;21.50;99.90
50570;DHT22;36525;49.398;7.614;2022-07-29T06:53:55;21.80;99.90
50570;DHT22;36525;49.398;7.614;2022-07-29T06:56:38;21.90;99.90
50570;DHT22;36525;49.398;7.614;2022-07-29T06:59:09;21.80;99.90
50570;DHT22;36525;49.398;7.614;2022-07-29T07:01:38;21.70;99.90
50570;DHT22;36525;49.398;7.614;2022-07-29T07:04:07;21.60;99.90
50570;DHT22;36525;49.398;7.614;2022-07-29T07:06:36;21.60;99.90
50570;DHT22;36525;49.398;7.614;2022-07-29T07:09:03;21.70;99.90
50570;DHT22;36525;49.398;7.614;2022-07-29T07:11:30;21.40;99.90
50570;DHT22;36525;49.398;7.614;2022-07-29T07:13:57;21.40;99.90
50570;DHT22;36525;49.398;7.614;2022-07-29T07:16:29;21.40;99.90
50570;DHT22;36525;49.398;7.614;2022-07-29T07:18:56;21.50;99.90
50570;DHT22;36525;49.398;7.614;2022-07-29T07:21:23;21.70;99.90
50570;DHT22;36525;49.398;7.614;2022-07-29T07:23:50;21.90;99.90
50570;DHT22;36525;49.398;7.614;2022-07-29T07:26:17;22.30;99.90
50570;DHT22;36525;49.398;7.614;2022-07-29T07:28:44;22.50;99.90
50570;DHT22;36525;49.398;7.614;2022-07-29T07:31:11;22.60;99.90
50570;DHT22;36525;49.398;7.614;2022-07-29T07:33:38;22.60;99.90
50570;DHT22;36525;49.398;7.614;2022-07-29T07:36:05;22.60;99.90
50570;DHT22;36525;49.398;7.614;2022-07-29T07:38:32;22.60;99.90
50570;DHT22;36525;49.398;7.614;2022-07-29T07:41:00;22.60;99.90
50570;DHT22;36525;49.398;7.614;2022-07-29T07:43:27;22.70;99.90
50570;DHT22;36525;49.398;7.614;2022-07-29T07:45:54;22.40;99.90
50570;DHT22;36525;49.398;7.614;2022-07-29T07:48:21;22.20;99.90
50570;DHT22;36525;49.398;7.614;2022-07-29T07:50:48;22.10;99.90
50570;DHT22;36525;49.398;7.614;2022-07-29T07:53:16;22.10;99.90
50570;DHT22;36525;49.398;7.614;2022-07-29T07:55:43;22.10;99.90
50570;DHT22;36525;49.398;7.614;2022-07-29T07:58:30;22.10;99.90
50570;DHT22;36525;49.398;7.614;2022-07-29T08:00:57;22.10;99.90
50570;DHT22;36525;49.398;7.614;2022-07-29T08:03:24;22.00;99.90
50570;DHT22;36525;49.398;7.614;2022-07-29T08:05:51;22.00;99.90
50570;DHT22;36525;49.398;7.614;2022-07-29T08:08:18;21.90;99.90
50570;DHT22;36525;49.398;7.614;2022-07-29T08:10:45;21.90;99.90
50570;DHT22;36525;49.398;7.614;2022-07-29T08:13:24;22.00;99.90
50570;DHT22;36525;49.398;7.614;2022-07-29T08:15:54;22.10;99.90
50570;DHT22;36525;49.398;7.614;2022-07-29T08:18:25;22.10;99.90
50570;DHT22;36525;49.398;7.614;2022-07-29T08:20:54;22.30;99.90
50570;DHT22;36525;49.398;7.614;2022-07-29T08:23:21;22.60;99.90
50570;DHT22;36525;49.398;7.614;2022-07-29T08:25:51;22.80;99.90
50570;DHT22;36525;49.398;7.614;2022-07-29T08:28:20;23.00;99.90
50570;DHT22;36525;49.398;7.614;2022-07-29T08:30:51;23.30;99.90
50570;DHT22;36525;49.398;7.614;2022-07-29T08:33:18;23.60;99.90
50570;DHT22;36525;49.398;7.614;2022-07-29T08:35:45;23.80;99.90
50570;DHT22;36525;49.398;7.614;2022-07-29T08:38:13;24.00;99.90
50570;DHT22;36525;49.398;7.614;2022-07-29T08:40:40;24.20;99.90
50570;DHT22;36525;49.398;7.614;2022-07-29T08:43:08;24.30;99.90
50570;DHT22;36525;49.398;7.614;2022-07-29T08:45:46;24.20;99.90
50570;DHT22;36525;49.398;7.614;2022-07-29T08:48:16;24.40;99.90
50570;DHT22;36525;49.398;7.614;2022-07-29T08:50:46;24.40;99.90
50570;DHT22;36525;49.398;7.614;2022-07-29T08:53:16;24.80;99.90
50570;DHT22;36525;49.398;7.614;2022-07-29T09:05:58;25.90;99.90
50570;DHT22;36525;49.398;7.614;2022-07-29T10:22:43;29.60;94.40
50570;DHT22;36525;49.398;7.614;2022-07-29T11:17:04;31.50;99.90
50570;DHT22;36525;49.398;7.614;2022-07-29T11:34:26;31.70;99.40
50570;DHT22;36525;49.398;7.614;2022-07-29T11:52:05;32.30;97.10
50570;DHT22;36525;49.398;7.614;2022-07-29T11:55:11;31.80;97.20
50570;DHT22;36525;49.398;7.614;2022-07-29T12:05:03;31.90;96.80
50570;DHT22;36525;49.398;7.614;2022-07-29T12:07:43;31.80;96.80
50570;DHT22;36525;49.398;7.614;2022-07-29T12:10:31;31.90;96.70
50570;DHT22;36525;49.398;7.614;2022-07-29T12:13:29;31.60;95.40
50570;DHT22;36525;49.398;7.614;2022-07-29T12:38:37;29.90;95.40
50570;DHT22;36525;49.398;7.614;2022-07-29T12:43:35;29.30;96.10
50570;DHT22;36525;49.398;7.614;2022-07-29T12:46:14;29.20;96.30
50570;DHT22;36525;49.398;7.614;2022-07-29T12:48:43;29.30;96.50
50570;DHT22;36525;49.398;7.614;2022-07-29T12:51:11;29.60;96.30
50570;DHT22;36525;49.398;7.614;2022-07-29T12:53:40;29.70;96.10
50570;DHT22;36525;49.398;7.614;2022-07-29T12:56:15;29.60;96.20
50570;DHT22;36525;49.398;7.614;2022-07-29T12:59:32;29.60;96.00
50570;DHT22;36525;49.398;7.614;2022-07-29T13:01:59;29.40;96.40
50570;DHT22;36525;49.398;7.614;2022-07-29T13:04:28;29.30;96.50
50570;DHT22;36525;49.398;7.614;2022-07-29T13:07:06;29.20;96.10
50570;DHT22;36525;49.398;7.614;2022-07-29T13:09:41;29.20;96.30
50570;DHT22;36525;49.398;7.614;2022-07-29T13:12:12;29.20;96.00
50570;DHT22;36525;49.398;7.614;2022-07-29T13:14:44;29.30;96.00
50570;DHT22;36525;49.398;7.614;2022-07-29T13:17:15;29.20;95.90
50570;DHT22;36525;49.398;7.614;2022-07-29T13:19:47;29.20;96.20
50570;DHT22;36525;49.398;7.614;2022-07-29T13:22:21;29.20;96.30
50570;DHT22;36525;49.398;7.614;2022-07-29T13:24:57;29.20;95.90
50570;DHT22;36525;49.398;7.614;2022-07-29T13:27:28;29.00;96.30
50570;DHT22;36525;49.398;7.614;2022-07-29T13:29:57;29.00;95.30
50570;DHT22;36525;49.398;7.614;2022-07-29T13:32:27;28.70;95.50
50570;DHT22;36525;49.398;7.614;2022-07-29T13:34:57;28.50;96.40
50570;DHT22;36525;49.398;7.614;2022-07-29T13:37:27;28.40;96.50
50570;DHT22;36525;49.398;7.614;2022-07-29T13:39:56;28.40;96.70
50570;DHT22;36525;49.398;7.614;2022-07-29T13:42:23;28.30;96.90
50570;DHT22;36525;49.398;7.614;2022-07-29T13:44:51;28.40;96.30
50570;DHT22;36525;49.398;7.614;2022-07-29T13:47:19;28.40;95.90
50570;DHT22;36525;49.398;7.614;2022-07-29T13:49:48;28.50;95.90
50570;DHT22;36525;49.398;7.614;2022-07-29T13:52:15;28.50;95.70
50570;DHT22;36525;49.398;7.614;2022-07-29T13:54:45;28.70;95.70
50570;DHT22;36525;49.398;7.614;2022-07-29T13:57:13;29.10;95.30
50570;DHT22;36525;49.398;7.614;2022-07-29T13:59:41;29.30;95.20
50570;DHT22;36525;49.398;7.614;2022-07-29T14:02:10;29.40;95.50
50570;DHT22;36525;49.398;7.614;2022-07-29T14:04:41;29.30;95.40
50570;DHT22;36525;49.398;7.614;2022-07-29T14:09:42;30.20;95.40
50570;DHT22;36525;49.398;7.614;2022-07-29T14:12:09;31.00;94.70
50570;DHT22;36525;49.398;7.614;2022-07-29T14:14:36;31.60;93.20
50570;DHT22;36525;49.398;7.614;2022-07-29T14:17:04;32.10;93.10
50570;DHT22;36525;49.398;7.614;2022-07-29T14:19:34;32.70;92.50
50570;DHT22;36525;49.398;7.614;2022-07-29T14:22:06;33.00;93.20
50570;DHT22;36525;49.398;7.614;2022-07-29T14:24:35;33.40;93.10
50570;DHT22;36525;49.398;7.614;2022-07-29T14:27:04;33.70;92.80
50570;DHT22;36525;49.398;7.614;2022-07-29T14:29:33;33.40;92.60
50570;DHT22;36525;49.398;7.614;2022-07-29T14:32:07;33.40;92.30
50570;DHT22;36525;49.398;7.614;2022-07-29T14:34:36;33.60;92.50
50570;DHT22;36525;49.398;7.614;2022-07-29T14:37:05;34.00;92.00
50570;DHT22;36525;49.398;7.614;2022-07-29T14:39:34;34.40;91.70
50570;DHT22;36525;49.398;7.614;2022-07-29T14:42:09;34.20;91.70
50570;DHT22;36525;49.398;7.614;2022-07-29T14:44:39;34.00;91.70
50570;DHT22;36525;49.398;7.614;2022-07-29T14:47:08;34.40;91.30
50570;DHT22;36525;49.398;7.614;2022-07-29T14:49:36;34.60;91.40
50570;DHT22;36525;49.398;7.614;2022-07-29T14:52:03;35.00;90.80
50570;DHT22;36525;49.398;7.614;2022-07-29T17:59:02;28.20;72.70
50570;DHT22;36525;49.398;7.614;2022-07-29T18:01:32;28.30;79.70
50570;DHT22;36525;49.398;7.614;2022-07-29T18:03:59;27.90;82.30
50570;DHT22;36525;49.398;7.614;2022-07-29T18:06:28;27.70;84.30
50570;DHT22;36525;49.398;7.614;2022-07-29T18:08:55;27.50;85.40
50570;DHT22;36525;49.398;7.614;2022-07-29T18:11:22;27.30;87.70
50570;DHT22;36525;49.398;7.614;2022-07-29T18:13:49;27.20;88.00
50570;DHT22;36525;49.398;7.614;2022-07-29T18:16:17;27.10;88.60
50570;DHT22;36525;49.398;7.614;2022-07-29T18:18:44;27.10;88.70
50570;DHT22;36525;49.398;7.614;2022-07-29T18:21:12;27.00;88.70
50570;DHT22;36525;49.398;7.614;2022-07-29T18:23:39;27.00;89.70
50570;DHT22;36525;49.398;7.614;2022-07-29T18:26:06;26.90;90.00
50570;DHT22;36525;49.398;7.614;2022-07-29T18:28:33;26.70;90.10
50570;DHT22;36525;49.398;7.614;2022-07-29T18:31:00;26.80;90.20
50570;DHT22;36525;49.398;7.614;2022-07-29T18:33:28;26.80;90.60
50570;DHT22;36525;49.398;7.614;2022-07-29T18:35:55;26.60;90.90
50570;DHT22;36525;49.398;7.614;2022-07-29T18:38:38;26.50;91.60
50570;DHT22;36525;49.398;7.614;2022-07-29T18:41:06;26.20;92.40
50570;DHT22;36525;49.398;7.614;2022-07-29T18:43:33;26.00;93.60
50570;DHT22;36525;49.398;7.614;2022-07-29T18:46:00;25.80;93.80
50570;DHT22;36525;49.398;7.614;2022-07-29T18:48:28;25.80;93.80
50570;DHT22;36525;49.398;7.614;2022-07-29T18:50:57;25.90;94.20
50570;DHT22;36525;49.398;7.614;2022-07-29T18:53:24;25.50;95.70
50570;DHT22;36525;49.398;7.614;2022-07-29T18:55:51;25.30;95.00
50570;DHT22;36525;49.398;7.614;2022-07-29T18:58:22;25.00;94.00
50570;DHT22;36525;49.398;7.614;2022-07-29T19:00:49;24.80;93.60
50570;DHT22;36525;49.398;7.614;2022-07-29T19:03:16;24.60;93.30
50570;DHT22;36525;49.398;7.614;2022-07-29T19:05:43;24.50;92.50
50570;DHT22;36525;49.398;7.614;2022-07-29T19:08:10;24.20;92.40
50570;DHT22;36525;49.398;7.614;2022-07-29T19:10:43;24.10;91.80
50570;DHT22;36525;49.398;7.614;2022-07-29T19:13:14;23.90;90.80
50570;DHT22;36525;49.398;7.614;2022-07-29T19:15:41;23.80;89.20
50570;DHT22;36525;49.398;7.614;2022-07-29T19:18:09;23.80;87.50
50570;DHT22;36525;49.398;7.614;2022-07-29T19:20:39;23.80;87.20
50570;DHT22;36525;49.398;7.614;2022-07-29T19:23:07;23.90;87.30
50570;DHT22;36525;49.398;7.614;2022-07-29T19:25:35;23.90;87.30
50570;DHT22;36525;49.398;7.614;2022-07-29T19:28:18;23.60;88.30
50570;DHT22;36525;49.398;7.614;2022-07-29T19:30:45;23.50;88.70
50570;DHT22;36525;49.398;7.614;2022-07-29T19:33:12;23.30;88.90
50570;DHT22;36525;49.398;7.614;2022-07-29T19:35:43;23.30;89.90
50570;DHT22;36525;49.398;7.614;2022-07-29T19:38:11;23.20;89.80
50570;DHT22;36525;49.398;7.614;2022-07-29T19:40:39;23.00;90.20
50570;DHT22;36525;49.398;7.614;2022-07-29T19:43:06;23.10;90.30
50570;DHT22;36525;49.398;7.614;2022-07-29T19:45:53;23.00;90.40
50570;DHT22;36525;49.398;7.614;2022-07-29T19:48:21;22.80;90.60
50570;DHT22;36525;49.398;7.614;2022-07-29T19:50:48;22.80;90.80
50570;DHT22;36525;49.398;7.614;2022-07-29T19:53:14;22.70;90.80
50570;DHT22;36525;49.398;7.614;2022-07-29T19:55:42;22.60;91.10
50570;DHT22;36525;49.398;7.614;2022-07-29T19:58:08;22.50;91.40
50570;DHT22;36525;49.398;7.614;2022-07-29T20:00:36;22.50;91.70
50570;DHT22;36525;49.398;7.614;2022-07-29T20:03:05;22.40;91.80
50570;DHT22;36525;49.398;7.614;2022-07-29T20:05:32;22.40;92.20
50570;DHT22;36525;49.398;7.614;2022-07-29T20:07:59;22.30;92.20
50570;DHT22;36525;49.398;7.614;2022-07-29T20:10:30;22.20;92.40
50570;DHT22;36525;49.398;7.614;2022-07-29T20:12:58;22.10;92.90
50570;DHT22;36525;49.398;7.614;2022-07-29T20:15:25;22.00;93.20
50570;DHT22;36525;49.398;7.614;2022-07-29T20:17:52;22.00;93.40
50570;DHT22;36525;49.398;7.614;2022-07-29T20:20:23;21.90;93.80
50570;DHT22;36525;49.398;7.614;2022-07-29T20:22:51;21.80;94.00
50570;DHT22;36525;49.398;7.614;2022-07-29T20:25:19;21.80;94.10
50570;DHT22;36525;49.398;7.614;2022-07-29T20:27:46;21.80;94.30
50570;DHT22;36525;49.398;7.614;2022-07-29T20:30:15;21.70;94.50
50570;DHT22;36525;49.398;7.614;2022-07-29T20:32:43;21.70;94.50
50570;DHT22;36525;49.398;7.614;2022-07-29T20:35:11;21.70;94.70
50570;DHT22;36525;49.398;7.614;2022-07-29T20:37:39;21.70;94.90
50570;DHT22;36525;49.398;7.614;2022-07-29T20:40:22;21.60;95.10
50570;DHT22;36525;49.398;7.614;2022-07-29T20:42:53;21.50;95.40
50570;DHT22;36525;49.398;7.614;2022-07-29T20:45:21;21.50;95.60
50570;DHT22;36525;49.398;7.614;2022-07-29T20:47:50;21.40;95.60
50570;DHT22;36525;49.398;7.614;2022-07-29T20:50:18;21.40;95.80
50570;DHT22;36525;49.398;7.614;2022-07-29T20:52:49;21.40;95.90
50570;DHT22;36525;49.398;7.614;2022-07-29T20:55:17;21.30;95.80
50570;DHT22;36525;49.398;7.614;2022-07-29T20:57:44;21.30;96.20
50570;DHT22;36525;49.398;7.614;2022-07-29T21:00:11;21.20;96.40
50570;DHT22;36525;49.398;7.614;2022-07-29T21:02:38;21.20;96.40
50570;DHT22;36525;49.398;7.614;2022-07-29T21:05:06;21.20;96.60
50570;DHT22;36525;49.398;7.614;2022-07-29T21:07:33;21.10;96.70
50570;DHT22;36525;49.398;7.614;2022-07-29T21:10:00;21.10;97.00
50570;DHT22;36525;49.398;7.614;2022-07-29T21:12:27;21.00;97.20
50570;DHT22;36525;49.398;7.614;2022-07-29T21:14:55;21.00;97.30
50570;DHT22;36525;49.398;7.614;2022-07-29T21:17:23;21.00;97.50
50570;DHT22;36525;49.398;7.614;2022-07-29T21:19:50;20.90;97.80
50570;DHT22;36525;49.398;7.614;2022-07-29T21:22:19;20.80;98.20
50570;DHT22;36525;49.398;7.614;2022-07-29T21:24:48;20.70;98.30
50570;DHT22;36525;49.398;7.614;2022-07-29T21:27:15;20.60;98.70
50570;DHT22;36525;49.398;7.614;2022-07-29T21:30:05;20.50;99.00
50570;DHT22;36525;49.398;7.614;2022-07-29T21:32:34;20.50;99.10
50570;DHT22;36525;49.398;7.614;2022-07-29T21:35:01;20.30;99.60
50570;DHT22;36525;49.398;7.614;2022-07-29T21:37:28;20.30;99.60
50570;DHT22;36525;49.398;7.614;2022-07-29T21:39:55;20.30;99.90
50570;DHT22;36525;49.398;7.614;2022-07-29T21:42:22;20.20;99.90
50570;DHT22;36525;49.398;7.614;2022-07-29T21:44:50;20.00;99.90
50570;DHT22;36525;49.398;7.614;2022-07-29T21:47:17;20.00;99.90
50570;DHT22;36525;49.398;7.614;2022-07-29T21:49:45;20.00;99.90
50570;DHT22;36525;49.398;7.614;2022-07-29T21:52:16;20.10;99.90
50570;DHT22;36525;49.398;7.614;2022-07-29T21:54:43;20.10;99.90
50570;DHT22;36525;49.398;7.614;2022-07-29T21:57:10;20.10;99.90
50570;DHT22;36525;49.398;7.614;2022-07-29T21:59:37;20.10;99.90
50570;DHT22;36525;49.398;7.614;2022-07-29T22:02:04;20.10;99.90
50570;DHT22;36525;49.398;7.614;2022-07-29T22:04:31;20.10;99.90
50570;DHT22;36525;49.398;7.614;2022-07-29T22:07:00;20.10;99.90
50570;DHT22;36525;49.398;7.614;2022-07-29T22:09:28;20.00;99.90
50570;DHT22;36525;49.398;7.614;2022-07-29T22:11:55;19.80;99.90
50570;DHT22;36525;49.398;7.614;2022-07-29T22:14:22;19.80;99.90
50570;DHT22;36525;49.398;7.614;2022-07-29T22:16:51;19.70;99.90
50570;DHT22;36525;49.398;7.614;2022-07-29T22:19:23;19.50;99.90
50570;DHT22;36525;49.398;7.614;2022-07-29T22:21:55;19.40;99.90
50570;DHT22;36525;49.398;7.614;2022-07-29T22:24:22;19.40;99.90
50570;DHT22;36525;49.398;7.614;2022-07-29T22:26:49;19.40;99.90
50570;DHT22;36525;49.398;7.614;2022-07-29T22:29:16;19.30;99.90
50570;DHT22;36525;49.398;7.614;2022-07-29T22:31:44;19.20;99.90
50570;DHT22;36525;49.398;7.614;2022-07-29T22:34:11;19.10;99.90
50570;DHT22;36525;49.398;7.614;2022-07-29T22:36:40;19.10;99.90
50570;DHT22;36525;49.398;7.614;2022-07-29T22:39:08;19.00;99.90
50570;DHT22;36525;49.398;7.614;2022-07-29T22:41:35;18.80;99.90
50570;DHT22;36525;49.398;7.614;2022-07-29T22:44:02;18.80;99.90
50570;DHT22;36525;49.398;7.614;2022-07-29T22:46:32;18.80;99.90